createdAt,value
2023-04-26T00:02:41.044Z,100883.84
2023-04-26T00:07:44.712Z,100926.22
2023-04-26T00:12:47.273Z,100897.41
2023-04-26T00:17:51.842Z,100921.59
2023-04-26T00:22:55.568Z,100971.00
2023-04-26T00:27:58.072Z,101008.47
2023-04-26T00:33:01.608Z,100926.97
2023-04-26T00:38:04.627Z,101000.56
2023-04-26T00:43:08.339Z,100964.25
2023-04-26T00:48:12.360Z,100990.00
2023-04-26T00:53:17.436Z,100987.44
2023-04-26T00:58:20.706Z,101036.47
2023-04-26T01:03:24.337Z,101003.69
2023-04-26T01:08:27.923Z,101034.53
2023-04-26T01:13:33.796Z,101059.19
2023-04-26T01:18:37.225Z,101044.03
2023-04-26T01:23:40.428Z,101043.56
2023-04-26T01:28:43.099Z,100964.44
2023-04-26T01:33:45.865Z,101034.47
2023-04-26T01:38:48.472Z,100953.28
2023-04-26T01:43:51.820Z,101001.28
2023-04-26T01:48:55.017Z,100971.00
2023-04-26T01:53:59.337Z,101026.94
2023-04-26T01:59:02.593Z,101034.56
2023-04-26T02:04:06.851Z,101002.97
2023-04-26T02:09:10.470Z,100975.28
2023-04-26T02:14:17.017Z,101038.75
2023-04-26T02:19:23.668Z,101037.00
2023-04-26T02:24:26.359Z,101065.19
2023-04-26T02:34:39.370Z,100975.50
2023-04-26T02:39:43.184Z,101059.13
2023-04-26T02:44:46.762Z,101064.94
2023-04-26T02:49:49.562Z,101043.25
2023-04-26T02:54:52.312Z,101023.38
2023-04-26T02:59:57.244Z,101067.88
2023-04-26T03:05:01.092Z,101097.69
2023-04-26T03:10:06.993Z,101034.47
2023-04-26T03:15:12.103Z,101158.88
2023-04-26T03:20:17.456Z,101085.56
2023-04-26T03:25:20.931Z,101063.88
2023-04-26T03:30:24.026Z,101179.31
2023-04-26T03:35:26.745Z,101186.03
2023-04-26T03:40:30.339Z,101128.00
2023-04-26T03:45:33.853Z,101142.41
2023-04-26T03:50:37.410Z,101141.97
2023-04-26T03:55:40.254Z,101157.25
2023-04-26T04:00:43.993Z,101196.38
2023-04-26T04:05:48.371Z,101127.19
2023-04-26T04:10:52.930Z,101154.38
2023-04-26T04:15:55.497Z,101164.91
2023-04-26T04:20:59.253Z,101218.22
2023-04-26T04:26:04.126Z,101131.78
2023-04-26T04:31:09.539Z,101173.28
2023-04-26T04:36:12.048Z,101203.00
2023-04-26T04:41:15.285Z,101228.91
2023-04-26T04:46:18.241Z,101237.63
2023-04-26T04:51:22.500Z,101233.78
2023-04-26T04:56:26.259Z,101253.13
2023-04-26T05:01:29.914Z,101197.41
2023-04-26T05:06:35.000Z,101215.16
2023-04-26T05:11:38.000Z,101252.53
2023-04-26T05:16:46.148Z,101266.69
2023-04-26T05:21:48.874Z,101192.06
2023-04-26T05:26:52.016Z,101223.94
2023-04-26T05:32:26.667Z,101254.03
2023-04-26T05:37:53.403Z,101244.53
2023-04-26T05:42:59.083Z,101267.75
2023-04-26T05:48:04.211Z,101253.16
2023-04-26T05:53:06.517Z,101272.59
2023-04-26T05:58:10.277Z,101221.72
2023-04-26T06:03:15.068Z,101260.75
2023-04-26T06:08:18.195Z,101266.22
2023-04-26T06:13:22.284Z,101254.94
2023-04-26T06:18:25.338Z,101275.50
2023-04-26T06:23:27.842Z,101240.72
2023-04-26T06:28:30.230Z,101271.28
2023-04-26T06:33:32.879Z,101218.63
2023-04-26T06:38:35.381Z,101207.19
2023-04-26T06:43:39.403Z,101268.28
2023-04-26T06:48:55.581Z,101272.94
2023-04-26T06:54:01.030Z,101293.47
2023-04-26T06:59:08.028Z,101295.97
2023-04-26T07:04:11.592Z,101302.09
2023-04-26T07:09:14.689Z,101298.22
2023-04-26T07:14:19.820Z,101253.19
2023-04-26T07:19:23.597Z,101307.63
2023-04-26T07:24:26.056Z,101312.00
2023-04-26T07:29:32.292Z,101284.69
2023-04-26T07:34:36.250Z,101312.19
2023-04-26T07:39:39.576Z,101323.50
2023-04-26T07:44:43.645Z,101323.91
2023-04-26T07:49:48.004Z,101317.00
2023-04-26T07:54:51.953Z,101315.50
2023-04-26T07:59:55.182Z,101322.69
2023-04-26T08:04:58.322Z,101315.22
2023-04-26T08:10:01.458Z,101311.38
2023-04-26T08:15:09.296Z,101305.06
2023-04-26T08:20:12.357Z,101287.19
2023-04-26T08:25:15.692Z,101316.06
2023-04-26T08:35:45.388Z,101303.81
2023-04-26T08:40:49.319Z,101301.00
2023-04-26T08:45:52.603Z,101268.78
2023-04-26T08:51:23.351Z,101278.84
2023-04-26T08:56:29.339Z,101296.25
2023-04-26T09:01:33.120Z,101280.16
2023-04-26T09:06:36.358Z,101295.69
2023-04-26T09:12:01.940Z,101228.84
2023-04-26T09:17:05.175Z,101294.44
2023-04-26T09:22:11.917Z,101281.50
2023-04-26T09:27:15.544Z,101278.91
2023-04-26T09:32:20.107Z,101255.97
2023-04-26T09:37:22.462Z,101282.88
2023-04-26T09:42:25.272Z,101248.19
2023-04-26T09:47:27.599Z,101250.31
2023-04-26T09:52:30.082Z,101275.19
2023-04-26T09:57:33.146Z,101248.41
2023-04-26T10:02:35.849Z,101267.78
2023-04-26T10:07:40.354Z,101246.72
2023-04-26T10:12:44.390Z,101280.03
2023-04-26T10:17:49.565Z,101290.59
2023-04-26T10:23:01.697Z,101272.97
2023-04-26T10:28:05.898Z,101290.41
2023-04-26T10:33:14.787Z,101291.97
2023-04-26T10:38:17.364Z,101271.56
2023-04-26T10:43:20.091Z,101292.50
2023-04-26T10:48:28.918Z,101299.78
2023-04-26T10:53:33.163Z,101290.84
2023-04-26T10:58:36.544Z,101287.34
2023-04-26T11:03:41.299Z,101315.84
2023-04-26T11:08:44.154Z,101277.03
2023-04-26T11:13:49.541Z,101298.72
2023-04-26T11:18:54.925Z,101293.44
2023-04-26T11:23:58.522Z,101286.44
2023-04-26T11:29:02.260Z,101291.34
2023-04-26T11:34:05.333Z,101291.09
2023-04-26T11:39:08.604Z,101283.88
2023-04-26T11:44:12.927Z,101285.75
2023-04-26T11:49:16.848Z,101266.66
2023-04-26T11:54:34.151Z,101294.50
2023-04-26T11:59:38.747Z,101295.25
2023-04-26T12:04:42.240Z,101257.16
2023-04-26T12:09:46.324Z,101286.03
2023-04-26T12:14:48.868Z,101311.28
2023-04-26T12:19:52.212Z,101300.16
2023-04-26T12:25:05.682Z,101308.81
2023-04-26T12:30:09.676Z,101311.22
2023-04-26T12:35:13.126Z,101302.66
2023-04-26T12:40:16.634Z,101311.78
2023-04-26T12:45:19.751Z,101305.69
2023-04-26T12:50:23.143Z,101311.91
2023-04-26T12:55:25.454Z,101317.78
2023-04-26T13:00:27.959Z,101295.13
2023-04-26T13:05:32.436Z,101297.53
2023-04-26T13:10:36.755Z,101312.94
2023-04-26T13:15:40.103Z,101305.13
2023-04-26T13:20:43.666Z,101314.03
2023-04-26T13:25:48.948Z,101297.41
2023-04-26T13:30:53.296Z,101318.13
2023-04-26T13:35:55.933Z,101314.34
2023-04-26T13:41:00.068Z,101303.88
2023-04-26T13:46:02.937Z,101313.34
2023-04-26T13:51:06.972Z,101312.31
2023-04-26T13:56:11.016Z,101319.59
2023-04-26T14:01:14.322Z,101316.75
2023-04-26T14:06:17.044Z,101307.88
2023-04-26T14:11:19.879Z,101318.41
2023-04-26T14:16:26.659Z,101286.66
2023-04-26T14:21:29.461Z,101286.66
2023-04-26T14:26:31.874Z,101303.06
2023-04-26T14:31:34.345Z,101315.75
2023-04-26T14:36:37.018Z,101295.03
2023-04-26T14:41:39.422Z,101311.19
2023-04-26T14:46:42.529Z,101303.66
2023-04-26T14:51:46.258Z,101274.78
2023-04-26T14:56:49.038Z,101317.66
2023-04-26T15:01:53.531Z,101309.53
2023-04-26T15:06:56.882Z,101274.19
2023-04-26T15:12:00.084Z,101304.59
2023-04-26T15:17:03.645Z,101313.44
2023-04-26T15:22:06.561Z,101310.47
2023-04-26T15:27:08.944Z,101316.91
2023-04-26T15:32:12.596Z,101322.00
2023-04-26T15:37:14.958Z,101306.81
2023-04-26T15:42:17.739Z,101334.84
2023-04-26T15:47:21.030Z,101298.59
2023-04-26T15:52:24.168Z,101336.31
2023-04-26T15:57:26.880Z,101320.09
2023-04-26T16:02:30.834Z,101305.16
2023-04-26T16:07:33.241Z,101314.47
2023-04-26T16:12:41.806Z,101330.31
2023-04-26T16:17:44.374Z,101335.59
2023-04-26T16:22:46.783Z,101356.78
2023-04-26T16:27:49.747Z,101363.66
2023-04-26T16:32:52.170Z,101326.78
2023-04-26T16:37:54.604Z,101362.34
2023-04-26T16:42:56.787Z,101351.34
2023-04-26T16:47:59.180Z,101378.78
2023-04-26T16:53:01.499Z,101353.81
2023-04-26T16:58:03.997Z,101335.91
2023-04-26T17:03:06.733Z,101369.88
2023-04-26T17:08:09.808Z,101367.53
2023-04-26T17:13:15.693Z,101340.28
2023-04-26T17:18:18.039Z,101342.66
2023-04-26T17:23:20.655Z,101372.03
2023-04-26T17:28:23.168Z,101337.00
2023-04-26T17:33:26.196Z,101360.72
2023-04-26T17:38:28.659Z,101376.25
2023-04-26T17:43:31.211Z,101368.75
2023-04-26T17:48:34.016Z,101381.81
2023-04-26T17:53:36.433Z,101379.72
2023-04-26T17:58:38.932Z,101376.63
2023-04-26T18:03:41.438Z,101378.75
2023-04-26T18:08:43.989Z,101370.53
2023-04-26T18:13:50.868Z,101375.00
2023-04-26T18:18:54.165Z,101378.84
2023-04-26T18:23:56.785Z,101376.78
2023-04-26T18:28:59.481Z,101376.84
2023-04-26T18:34:02.509Z,101367.97
2023-04-26T18:39:05.030Z,101377.84
2023-04-26T18:44:16.439Z,101372.38
2023-04-26T18:49:18.788Z,101345.81
2023-04-26T18:54:21.249Z,101323.47
2023-04-26T18:59:23.653Z,101372.00
2023-04-26T19:04:26.718Z,101319.63
2023-04-26T19:09:39.683Z,101364.94
2023-04-26T19:14:50.336Z,101363.34
2023-04-26T19:19:55.700Z,101337.88
2023-04-26T19:24:58.776Z,101353.69
2023-04-26T19:30:01.616Z,101322.09
2023-04-26T19:35:06.396Z,101355.88
2023-04-26T19:40:10.395Z,101361.00
2023-04-26T19:45:12.789Z,101361.78
2023-04-26T19:50:15.818Z,101340.41
2023-04-26T19:55:18.298Z,101363.63
2023-04-26T20:00:20.860Z,101335.38
2023-04-26T20:05:23.265Z,101382.88
2023-04-26T20:10:25.680Z,101371.59
2023-04-26T20:15:28.040Z,101340.88
2023-04-26T20:20:30.425Z,101389.50
2023-04-26T20:25:33.517Z,101389.47
2023-04-26T20:30:36.997Z,101382.59
2023-04-26T20:35:39.767Z,101342.44
2023-04-26T20:40:43.905Z,101383.22
2023-04-26T20:45:47.163Z,101388.31
2023-04-26T20:50:51.422Z,101403.28
2023-04-26T20:55:54.435Z,101392.00
2023-04-26T21:00:56.687Z,101381.00
2023-04-26T21:05:59.162Z,101399.22
2023-04-26T21:11:02.133Z,101388.09
2023-04-26T21:16:04.924Z,101409.00
2023-04-26T21:21:07.323Z,101424.22
2023-04-26T21:26:11.681Z,101405.00
2023-04-26T21:31:15.432Z,101419.41
2023-04-26T21:36:18.551Z,101404.44
2023-04-26T21:41:23.692Z,101408.56
2023-04-26T21:46:26.528Z,101404.28
2023-04-26T21:51:29.643Z,101399.31
2023-04-26T21:56:32.429Z,101373.88
2023-04-26T22:01:36.861Z,101390.22
2023-04-26T22:06:39.800Z,101398.31
2023-04-26T22:11:43.399Z,101351.50
2023-04-26T22:16:46.576Z,101351.97
2023-04-26T22:21:49.852Z,101393.53
2023-04-26T22:26:52.965Z,101395.56
2023-04-26T22:31:55.632Z,101360.88
2023-04-26T22:37:06.220Z,101403.34
2023-04-26T22:42:16.541Z,101362.63
2023-04-26T22:47:18.815Z,101402.38
2023-04-26T22:52:31.533Z,101360.34
2023-04-26T22:57:35.935Z,101402.56
2023-04-26T23:02:38.464Z,101386.31
2023-04-26T23:07:41.968Z,101392.66
2023-04-26T23:12:45.703Z,101394.31
2023-04-26T23:17:48.748Z,101388.59
2023-04-26T23:22:51.232Z,101400.22
2023-04-26T23:27:53.850Z,101398.09
2023-04-26T23:32:57.036Z,101360.59
2023-04-26T23:38:00.024Z,101370.03
2023-04-26T23:43:02.927Z,101381.25
2023-04-26T23:48:06.338Z,101399.06
2023-04-26T23:53:10.045Z,101398.44
2023-04-26T23:58:12.441Z,101369.09
